首页
METAR-TAF:

METAR-TAF

机场 :

图勒空军基地

图勒, 格陵兰

纬度: 76-32N, 经度: 068-42W, 海拔: 77米

当前天气观测

该预报发布于33分钟前的23:56 UTC
风速7节,风向东转东南
温度 -33°C
湿度 55%
气压 989 hPa
能见度10公里或以上
天空无云

METAR: BGTL 182356Z AUTO 12007KT 9999 CLR M33/M39 A2920 RMK AO2 SLP884 T13321388 11268 21332 52004 TSNO $

时间: 21:29 (00:29 UTC)

预报

该预报发布于7小时和29分钟前的17:00 UTC
预报有效从18日的 17点(UTC)到 19日的 23点(UTC)
风速12节,风向,在北转东北东南之间变化
能见度10公里或以上
天空无云
成为
从 18日的 18点(UTC)到 18日的 19点(UTC)
风速12节,风向,有时为18节阵风,在北转东北东南之间变化
能见度10公里或以上
少量云层高于18000英尺
成为
从 19日的 06点(UTC)到 19日的 07点(UTC)
风速12节,风向
能見度: 1909
天空无云

TAF: BGTL 181700Z 1817/1923 09012KT 9999 SKC QNH2916INS WND 030V130 BECMG 1818/1819 10012G18KT 9999 FEW180 QNH2914INS WND 030V130 BECMG 1906/1907 10012KT 9999 SKC QNH2915INS TXM26/1818Z TNM36/1906Z LAST NO AMDS AFT 1819 NEXT 1909

超过4000个机场的气象观测和天气预报(METAR&TAF报告)。

可查询的气象台以黄色和红色小点在地图上表示。

将鼠标移到小点上方,可查看气象台名称。

然后点击查看天气观测和预报。

如需切换地图:点击带黑十字的绿色按钮放大地图;点击带横线的绿色按钮缩小地图;或者点击绿色箭头查看邻近地区的地图。


METAR-TAF: